Time;durP1;ratioP1;P1;durP2;ratioP2;P2;SDS_P1;SDS_P2;PMS_P1;PMS_P2;Temp;Humidity;BMP_temperature;BMP_pressure;BME280_temperature;BME280_humidity;BME280_pressure;Samples;Min_cycle;Max_cycle;Signal;HPM_P1;HPM_P2
2022/08/22 00:00:18;;;;;;;;;;;16.00;99.90;;;;;;5086117;28;19920;-75
2022/08/22 00:02:54;;;;;;;;;;;16.00;99.90;;;;;;5085801;28;20130;-75
2022/08/22 00:05:27;;;;;;;;;;;15.90;99.90;;;;;;5085973;28;19987;-75
2022/08/22 00:08:00;;;;;;;;;;;15.80;99.90;;;;;;5086101;28;19927;-75
2022/08/22 00:10:30;;;;;;;;;;;15.80;99.90;;;;;;5085973;28;19921;-75
2022/08/22 00:13:01;;;;;;;;;;;15.70;99.90;;;;;;5085317;28;19928;-74
2022/08/22 00:15:31;;;;;;;;;;;15.70;99.90;;;;;;5084958;28;20241;-74
2022/08/22 00:18:00;;;;;;;;;;;15.70;99.90;;;;;;5086037;28;19955;-74
2022/08/22 00:20:30;;;;;;;;;;;15.70;99.90;;;;;;5085843;28;19956;-73
2022/08/22 00:22:58;;;;;;;;;;;15.70;99.90;;;;;;5085598;28;20152;-74
2022/08/22 00:25:41;;;;;;;;;;;15.70;99.90;;;;;;5085451;28;19987;-74
2022/08/22 00:28:10;;;;;;;;;;;15.70;99.90;;;;;;5085549;28;20249;-74
2022/08/22 00:30:42;;;;;;;;;;;15.70;99.90;;;;;;5085473;28;20276;-74
2022/08/22 00:33:14;;;;;;;;;;;15.70;99.90;;;;;;5085090;28;20287;-74
2022/08/22 00:35:46;;;;;;;;;;;15.60;99.90;;;;;;5085275;28;19921;-74
2022/08/22 00:38:16;;;;;;;;;;;15.60;99.90;;;;;;5085661;28;19999;-74
2022/08/22 00:40:52;;;;;;;;;;;15.60;99.90;;;;;;5085353;28;19955;-74
2022/08/22 00:43:40;;;;;;;;;;;15.60;99.90;;;;;;5085091;28;19958;-74
2022/08/22 00:46:19;;;;;;;;;;;15.50;99.90;;;;;;5081541;28;19966;-73
2022/08/22 00:49:03;;;;;;;;;;;15.40;99.90;;;;;;5102386;28;19920;-74
2022/08/22 00:51:47;;;;;;;;;;;15.40;99.90;;;;;;5105327;28;19920;-74
2022/08/22 00:54:21;;;;;;;;;;;15.30;99.90;;;;;;5074368;28;19920;-73
2022/08/22 00:56:59;;;;;;;;;;;15.30;99.90;;;;;;5105698;28;19962;-74
2022/08/22 00:59:34;;;;;;;;;;;15.30;99.90;;;;;;5105442;28;19991;-75
2022/08/22 01:02:07;;;;;;;;;;;15.30;99.90;;;;;;5105441;28;19979;-74
2022/08/22 01:04:40;;;;;;;;;;;15.20;99.90;;;;;;5104084;28;20289;-74
2022/08/22 01:07:16;;;;;;;;;;;15.20;99.90;;;;;;5105060;28;20097;-76
2022/08/22 01:09:50;;;;;;;;;;;15.20;99.90;;;;;;5105105;28;19987;-75
2022/08/22 01:12:26;;;;;;;;;;;15.20;99.90;;;;;;5105003;28;19920;-75
2022/08/22 01:14:55;;;;;;;;;;;15.20;99.90;;;;;;5104812;28;19926;-74
2022/08/22 01:17:40;;;;;;;;;;;15.20;99.90;;;;;;5104727;28;19920;-74
2022/08/22 01:20:22;;;;;;;;;;;15.20;99.90;;;;;;5094461;28;19926;-75
2022/08/22 01:23:03;;;;;;;;;;;15.20;99.90;;;;;;5104610;28;19987;-75
2022/08/22 01:25:57;;;;;;;;;;;15.20;99.90;;;;;;5091702;28;19920;-75
2022/08/22 01:28:38;;;;;;;;;;;15.10;99.90;;;;;;5104677;28;20211;-75
2022/08/22 01:31:23;;;;;;;;;;;15.10;99.90;;;;;;5104773;28;19998;-75
2022/08/22 01:34:08;;;;;;;;;;;15.10;99.90;;;;;;5104529;28;19983;-75
2022/08/22 01:36:46;;;;;;;;;;;15.00;99.90;;;;;;5104565;28;20038;-74
2022/08/22 01:39:27;;;;;;;;;;;15.00;99.90;;;;;;5104677;28;20170;-75
2022/08/22 01:42:03;;;;;;;;;;;14.90;99.90;;;;;;5091527;28;20266;-74
2022/08/22 01:44:40;;;;;;;;;;;14.90;99.90;;;;;;5103857;28;19984;-74
2022/08/22 01:47:10;;;;;;;;;;;14.80;99.90;;;;;;5104534;28;19983;-75
2022/08/22 01:49:39;;;;;;;;;;;14.80;99.90;;;;;;5104539;28;19926;-75
2022/08/22 01:52:09;;;;;;;;;;;14.80;99.90;;;;;;5104575;28;19995;-75
2022/08/22 01:54:41;;;;;;;;;;;14.70;99.90;;;;;;5103906;28;19983;-74
2022/08/22 01:57:08;;;;;;;;;;;14.70;99.90;;;;;;5104194;28;20190;-75
2022/08/22 01:59:36;;;;;;;;;;;14.60;99.90;;;;;;5104258;28;19920;-75
2022/08/22 02:02:09;;;;;;;;;;;14.60;99.90;;;;;;5104402;28;20179;-75
2022/08/22 02:04:39;;;;;;;;;;;14.70;99.90;;;;;;5103758;28;19983;-75
2022/08/22 02:07:11;;;;;;;;;;;14.60;99.90;;;;;;5104069;28;20123;-75
2022/08/22 02:09:42;;;;;;;;;;;14.60;99.90;;;;;;5103887;28;19920;-75
2022/08/22 02:12:17;;;;;;;;;;;14.60;99.90;;;;;;5104013;28;19990;-76
2022/08/22 02:14:51;;;;;;;;;;;14.50;99.90;;;;;;5103605;28;19920;-75
2022/08/22 02:17:21;;;;;;;;;;;14.50;99.90;;;;;;5104267;28;19920;-76
2022/08/22 02:19:54;;;;;;;;;;;14.50;99.90;;;;;;5103677;28;20260;-75
2022/08/22 02:22:29;;;;;;;;;;;14.50;99.90;;;;;;5103857;28;20144;-76
2022/08/22 02:25:00;;;;;;;;;;;14.50;99.90;;;;;;5103639;28;20139;-76
2022/08/22 02:27:32;;;;;;;;;;;14.50;99.90;;;;;;5101917;28;19982;-75
2022/08/22 02:30:02;;;;;;;;;;;14.40;99.90;;;;;;5093354;28;19920;-74
2022/08/22 02:32:33;;;;;;;;;;;14.30;99.90;;;;;;5100780;28;20127;-75
2022/08/22 02:35:05;;;;;;;;;;;14.30;99.90;;;;;;5095095;28;19919;-75
2022/08/22 02:37:38;;;;;;;;;;;14.20;99.90;;;;;;5103612;28;19955;-75
2022/08/22 02:40:13;;;;;;;;;;;14.10;99.90;;;;;;5103520;28;20227;-75
2022/08/22 02:42:42;;;;;;;;;;;14.10;99.90;;;;;;5102665;28;19987;-75
2022/08/22 02:45:15;;;;;;;;;;;14.00;99.90;;;;;;5103305;28;20203;-75
2022/08/22 02:47:48;;;;;;;;;;;13.90;99.90;;;;;;5095591;28;19956;-75
2022/08/22 02:50:17;;;;;;;;;;;13.90;99.90;;;;;;5083381;28;19984;-75
2022/08/22 02:52:52;;;;;;;;;;;13.90;99.90;;;;;;5083051;28;19991;-74
2022/08/22 02:55:21;;;;;;;;;;;13.90;99.90;;;;;;5093759;28;19921;-75
2022/08/22 02:57:51;;;;;;;;;;;13.90;99.90;;;;;;5103124;28;20230;-75
2022/08/22 03:00:26;;;;;;;;;;;13.90;99.90;;;;;;5103654;28;19920;-74
2022/08/22 03:02:59;;;;;;;;;;;13.90;99.90;;;;;;5103038;28;20204;-75
2022/08/22 03:05:27;;;;;;;;;;;13.90;99.90;;;;;;5103286;28;19963;-75
2022/08/22 03:07:59;;;;;;;;;;;13.90;99.90;;;;;;5103117;28;19989;-75
2022/08/22 03:10:27;;;;;;;;;;;13.90;99.90;;;;;;5103484;28;19983;-75
2022/08/22 03:13:02;;;;;;;;;;;13.90;99.90;;;;;;5102862;28;20030;-74
2022/08/22 03:15:32;;;;;;;;;;;13.90;99.90;;;;;;5103206;28;19978;-75
2022/08/22 03:18:02;;;;;;;;;;;13.90;99.90;;;;;;5103192;28;19920;-74
2022/08/22 03:20:41;;;;;;;;;;;13.90;99.90;;;;;;5103392;28;19975;-75
2022/08/22 03:23:13;;;;;;;;;;;13.90;99.90;;;;;;5102790;28;19984;-75
2022/08/22 03:25:44;;;;;;;;;;;13.90;99.90;;;;;;5103285;28;19966;-75
2022/08/22 03:28:13;;;;;;;;;;;13.90;99.90;;;;;;5106327;28;19983;-74
2022/08/22 03:30:42;;;;;;;;;;;13.90;99.90;;;;;;5106847;28;19983;-75
2022/08/22 03:33:16;;;;;;;;;;;13.90;99.90;;;;;;5106788;28;19924;-74
2022/08/22 03:35:54;;;;;;;;;;;13.80;99.90;;;;;;5098431;28;19979;-75
2022/08/22 03:38:23;;;;;;;;;;;13.80;99.90;;;;;;5107024;28;19963;-74
2022/08/22 03:41:08;;;;;;;;;;;13.80;99.90;;;;;;5106258;28;19927;-74
2022/08/22 03:43:52;;;;;;;;;;;13.80;99.90;;;;;;5106440;28;19920;-75
2022/08/22 03:46:37;;;;;;;;;;;13.80;99.90;;;;;;5099625;28;19988;-75
2022/08/22 03:49:10;;;;;;;;;;;13.80;99.90;;;;;;5086833;28;19921;-75
2022/08/22 03:51:43;;;;;;;;;;;13.80;99.90;;;;;;5086300;28;19988;-75
2022/08/22 03:54:21;;;;;;;;;;;13.80;99.90;;;;;;5086060;28;20191;-75
2022/08/22 03:57:06;;;;;;;;;;;13.80;99.90;;;;;;5086263;28;20222;-75
2022/08/22 03:59:39;;;;;;;;;;;13.70;99.90;;;;;;5086120;28;19991;-74
2022/08/22 04:02:20;;;;;;;;;;;13.70;99.90;;;;;;5086205;28;19920;-75
2022/08/22 04:04:55;;;;;;;;;;;13.70;99.90;;;;;;5085928;28;20212;-74
2022/08/22 04:07:31;;;;;;;;;;;13.70;99.90;;;;;;5086216;28;19921;-74
2022/08/22 04:10:12;;;;;;;;;;;13.70;99.90;;;;;;5086223;28;19926;-75
2022/08/22 04:12:48;;;;;;;;;;;13.70;99.90;;;;;;5085923;28;19996;-75
2022/08/22 04:15:24;;;;;;;;;;;13.70;99.90;;;;;;5085969;28;19920;-75
2022/08/22 04:18:09;;;;;;;;;;;13.70;99.90;;;;;;5085811;28;19928;-75
2022/08/22 04:20:57;;;;;;;;;;;13.70;99.90;;;;;;5085501;28;20168;-74
2022/08/22 04:23:31;;;;;;;;;;;13.60;99.90;;;;;;5080467;28;19966;-73
2022/08/22 04:26:02;;;;;;;;;;;13.60;99.90;;;;;;5085673;28;19975;-74
2022/08/22 04:28:32;;;;;;;;;;;13.60;99.90;;;;;;5085548;28;19987;-74
2022/08/22 04:31:04;;;;;;;;;;;13.60;99.90;;;;;;5085492;28;20169;-73
2022/08/22 04:33:33;;;;;;;;;;;13.60;99.90;;;;;;5085311;28;19956;-75
2022/08/22 04:36:01;;;;;;;;;;;13.50;99.90;;;;;;5085470;28;19920;-74
2022/08/22 04:38:30;;;;;;;;;;;13.50;99.90;;;;;;5084335;28;19983;-74
2022/08/22 04:41:01;;;;;;;;;;;13.50;99.90;;;;;;5084843;28;19983;-73
2022/08/22 04:43:30;;;;;;;;;;;13.50;99.90;;;;;;5085046;28;20127;-74
2022/08/22 04:45:58;;;;;;;;;;;13.50;99.90;;;;;;5085484;28;19987;-74
2022/08/22 04:48:29;;;;;;;;;;;13.50;99.90;;;;;;5099358;28;19920;-73
2022/08/22 04:50:59;;;;;;;;;;;13.40;99.90;;;;;;5105498;28;19926;-73
2022/08/22 04:53:30;;;;;;;;;;;13.40;99.90;;;;;;5093403;28;19995;-73
2022/08/22 04:56:01;;;;;;;;;;;13.40;99.90;;;;;;5096514;28;19925;-73
2022/08/22 04:58:41;;;;;;;;;;;13.40;99.90;;;;;;5105235;28;19959;-71
2022/08/22 05:01:15;;;;;;;;;;;13.40;99.90;;;;;;5100315;28;20234;-71
2022/08/22 05:03:45;;;;;;;;;;;13.40;99.90;;;;;;5103896;28;20163;-69
2022/08/22 05:06:13;;;;;;;;;;;13.40;99.90;;;;;;5100319;28;19924;-72
2022/08/22 05:08:40;;;;;;;;;;;13.50;99.90;;;;;;5104973;28;20333;-70
2022/08/22 05:11:08;;;;;;;;;;;13.50;99.90;;;;;;5105233;28;19920;-71
2022/08/22 05:13:39;;;;;;;;;;;13.50;99.90;;;;;;5104768;28;19927;-70
2022/08/22 05:16:09;;;;;;;;;;;13.50;99.90;;;;;;5104933;28;19926;-70
2022/08/22 05:18:39;;;;;;;;;;;13.60;99.90;;;;;;5102526;28;19987;-70
2022/08/22 05:21:07;;;;;;;;;;;13.60;99.90;;;;;;5104723;28;19991;-70
2022/08/22 05:23:36;;;;;;;;;;;13.60;99.90;;;;;;5104749;28;19920;-69
2022/08/22 05:26:04;;;;;;;;;;;13.70;99.90;;;;;;5104784;28;20199;-72
2022/08/22 05:28:33;;;;;;;;;;;13.70;99.90;;;;;;5104862;28;20173;-70
2022/08/22 05:31:03;;;;;;;;;;;13.80;99.90;;;;;;5104819;28;19983;-70
2022/08/22 05:33:30;;;;;;;;;;;13.90;99.90;;;;;;5104238;28;19960;-70
2022/08/22 05:36:00;;;;;;;;;;;13.90;99.90;;;;;;5104383;28;19962;-70
2022/08/22 05:38:31;;;;;;;;;;;14.00;99.90;;;;;;5104834;28;19983;-71
2022/08/22 05:41:01;;;;;;;;;;;14.10;99.90;;;;;;5104615;28;20127;-74
2022/08/22 05:43:28;;;;;;;;;;;14.10;99.90;;;;;;5103951;28;19920;-70
2022/08/22 05:45:55;;;;;;;;;;;14.20;99.90;;;;;;5104257;28;19955;-72
2022/08/22 05:48:29;;;;;;;;;;;14.20;99.90;;;;;;5098206;28;19920;-73
2022/08/22 05:50:57;;;;;;;;;;;14.30;99.90;;;;;;5087886;28;19943;-72
2022/08/22 05:53:27;;;;;;;;;;;14.40;99.90;;;;;;5083910;28;19998;-73
2022/08/22 05:56:07;;;;;;;;;;;14.50;99.90;;;;;;5103016;28;19920;-73
2022/08/22 05:58:41;;;;;;;;;;;14.60;99.90;;;;;;5105505;28;19920;-73
2022/08/22 06:01:21;;;;;;;;;;;14.70;99.90;;;;;;5104421;28;19920;-73
2022/08/22 06:03:55;;;;;;;;;;;14.80;99.90;;;;;;5103552;28;19963;-72
2022/08/22 06:06:23;;;;;;;;;;;14.90;99.90;;;;;;5104497;28;19926;-73
2022/08/22 06:09:12;;;;;;;;;;;15.00;99.90;;;;;;5105704;28;19987;-73
2022/08/22 06:11:40;;;;;;;;;;;15.10;99.90;;;;;;5105748;28;19920;-72
2022/08/22 06:14:13;;;;;;;;;;;15.20;99.90;;;;;;5103854;28;19960;-73
2022/08/22 06:16:43;;;;;;;;;;;15.30;99.90;;;;;;5103857;28;20129;-73
2022/08/22 06:19:13;;;;;;;;;;;15.40;99.90;;;;;;5103999;28;19920;-73
2022/08/22 06:21:40;;;;;;;;;;;15.50;99.90;;;;;;5103690;28;19951;-72
2022/08/22 06:24:09;;;;;;;;;;;15.60;99.90;;;;;;5103395;28;19970;-72
2022/08/22 06:26:37;;;;;;;;;;;15.70;99.90;;;;;;5103589;28;19982;-73
2022/08/22 06:29:06;;;;;;;;;;;15.80;99.90;;;;;;5104022;28;19958;-74
2022/08/22 06:31:35;;;;;;;;;;;15.90;99.90;;;;;;5104153;28;19959;-73
2022/08/22 06:34:05;;;;;;;;;;;16.00;99.90;;;;;;5103066;28;19991;-73
2022/08/22 06:36:35;;;;;;;;;;;16.10;99.90;;;;;;5103737;28;19978;-72
2022/08/22 06:39:06;;;;;;;;;;;16.20;99.90;;;;;;5103509;28;20258;-72
2022/08/22 06:41:40;;;;;;;;;;;16.40;99.90;;;;;;5101278;28;19959;-72
2022/08/22 06:44:07;;;;;;;;;;;16.50;99.90;;;;;;5083070;28;19920;-72
2022/08/22 06:46:36;;;;;;;;;;;16.60;99.90;;;;;;5083657;28;19963;-72
2022/08/22 06:49:04;;;;;;;;;;;16.70;99.90;;;;;;5083314;28;19973;-72
2022/08/22 06:51:31;;;;;;;;;;;16.80;99.90;;;;;;5083280;28;20029;-72
2022/08/22 06:54:01;;;;;;;;;;;16.90;99.90;;;;;;5085397;28;20176;-72
2022/08/22 06:56:30;;;;;;;;;;;17.00;99.90;;;;;;5103385;28;19991;-72
2022/08/22 06:58:59;;;;;;;;;;;17.10;99.90;;;;;;5103185;28;20231;-72
2022/08/22 07:01:27;;;;;;;;;;;17.20;99.90;;;;;;5103827;28;19963;-72
2022/08/22 07:03:55;;;;;;;;;;;17.30;99.90;;;;;;5107417;28;20188;-72
2022/08/22 07:06:28;;;;;;;;;;;17.40;99.90;;;;;;5107550;28;19983;-73
2022/08/22 07:08:55;;;;;;;;;;;17.50;99.90;;;;;;5107562;28;19991;-72
2022/08/22 07:11:26;;;;;;;;;;;17.60;99.90;;;;;;5107278;28;20126;-72
2022/08/22 07:13:55;;;;;;;;;;;17.80;99.90;;;;;;5106830;28;20007;-73
2022/08/22 07:16:27;;;;;;;;;;;17.90;99.90;;;;;;5107470;28;20153;-72
2022/08/22 07:18:54;;;;;;;;;;;18.10;99.90;;;;;;5107347;28;19951;-72
2022/08/22 07:21:25;;;;;;;;;;;18.20;99.90;;;;;;5107333;28;19920;-72
2022/08/22 07:23:52;;;;;;;;;;;18.30;99.90;;;;;;5106769;28;19926;-72
2022/08/22 07:26:24;;;;;;;;;;;18.50;99.90;;;;;;5107054;28;19927;-72
2022/08/22 07:28:55;;;;;;;;;;;18.70;99.90;;;;;;5107376;28;19920;-72
2022/08/22 07:31:26;;;;;;;;;;;18.80;99.90;;;;;;5107222;28;20182;-72
2022/08/22 07:33:53;;;;;;;;;;;19.00;99.90;;;;;;5100644;28;20238;-71
2022/08/22 07:36:28;;;;;;;;;;;19.10;99.90;;;;;;5094640;28;19959;-72
2022/08/22 07:39:21;;;;;;;;;;;19.20;99.90;;;;;;5095288;28;20166;-72
2022/08/22 07:41:56;;;;;;;;;;;19.30;99.90;;;;;;5098173;28;19975;-70
2022/08/22 07:44:30;;;;;;;;;;;19.40;99.90;;;;;;5098061;28;19921;-71
2022/08/22 07:46:59;;;;;;;;;;;19.40;99.90;;;;;;5098102;28;19920;-70
2022/08/22 07:49:29;;;;;;;;;;;19.60;99.90;;;;;;5098674;28;19920;-69
2022/08/22 07:51:57;;;;;;;;;;;19.80;99.90;;;;;;5097437;28;19920;-70
2022/08/22 07:54:27;;;;;;;;;;;19.90;99.90;;;;;;5094803;28;20216;-70
2022/08/22 07:56:56;;;;;;;;;;;20.00;99.90;;;;;;5097097;28;19924;-70
2022/08/22 07:59:23;;;;;;;;;;;20.10;99.90;;;;;;5096183;28;20021;-71
2022/08/22 08:01:53;;;;;;;;;;;20.30;99.90;;;;;;5106345;28;20276;-71
2022/08/22 08:04:22;;;;;;;;;;;20.30;99.90;;;;;;5105772;28;19989;-72
2022/08/22 08:06:51;;;;;;;;;;;20.30;99.90;;;;;;5104230;28;19924;-70
2022/08/22 08:09:19;;;;;;;;;;;20.40;99.90;;;;;;5106140;28;19935;-70
2022/08/22 08:11:47;;;;;;;;;;;20.50;99.90;;;;;;5102248;28;19983;-71
2022/08/22 08:14:15;;;;;;;;;;;20.50;99.90;;;;;;5096884;28;20245;-70
2022/08/22 08:16:43;;;;;;;;;;;20.60;99.90;;;;;;5095722;28;20238;-70
2022/08/22 08:19:12;;;;;;;;;;;20.70;99.90;;;;;;5094757;28;19960;-71
2022/08/22 08:21:40;;;;;;;;;;;20.70;99.90;;;;;;5091444;28;20176;-70
2022/08/22 08:24:08;;;;;;;;;;;20.70;99.90;;;;;;5084177;28;20208;-70
2022/08/22 08:26:38;;;;;;;;;;;20.80;99.90;;;;;;5102485;28;20165;-70
2022/08/22 08:29:06;;;;;;;;;;;20.80;99.90;;;;;;5099464;28;20232;-69
2022/08/22 08:31:36;;;;;;;;;;;20.80;99.90;;;;;;5098127;28;19916;-70
2022/08/22 08:34:05;;;;;;;;;;;20.80;99.90;;;;;;5103762;28;19928;-69
2022/08/22 08:36:47;;;;;;;;;;;20.90;99.90;;;;;;5102336;28;19920;-70
2022/08/22 08:39:17;;;;;;;;;;;21.00;99.90;;;;;;5102413;28;20074;-70
2022/08/22 08:42:00;;;;;;;;;;;21.10;99.90;;;;;;5089991;28;19963;-71
2022/08/22 08:44:36;;;;;;;;;;;21.20;99.90;;;;;;5097054;28;19920;-71
2022/08/22 08:47:13;;;;;;;;;;;21.30;99.90;;;;;;5105613;28;19942;-71
2022/08/22 08:49:57;;;;;;;;;;;21.30;99.90;;;;;;5092905;28;19980;-70
2022/08/22 08:52:31;;;;;;;;;;;21.30;99.90;;;;;;5101809;28;20259;-70
2022/08/22 08:55:11;;;;;;;;;;;21.50;99.90;;;;;;5100795;28;19928;-72
2022/08/22 08:57:48;;;;;;;;;;;21.50;99.90;;;;;;5096458;28;19963;-70
2022/08/22 09:00:17;;;;;;;;;;;21.60;99.90;;;;;;5097720;28;19991;-71
2022/08/22 09:02:50;;;;;;;;;;;21.70;99.90;;;;;;5100915;28;19999;-70
2022/08/22 09:05:35;;;;;;;;;;;21.80;99.90;;;;;;5091415;28;19952;-71
2022/08/22 09:08:25;;;;;;;;;;;21.80;99.90;;;;;;5098693;28;19991;-71
2022/08/22 09:11:10;;;;;;;;;;;21.80;99.90;;;;;;5105758;28;19920;-71
2022/08/22 09:13:42;;;;;;;;;;;21.90;99.90;;;;;;5094458;28;20192;-71
2022/08/22 09:16:15;;;;;;;;;;;21.90;99.90;;;;;;5095786;28;19995;-71
2022/08/22 09:18:52;;;;;;;;;;;21.90;99.90;;;;;;5089548;28;20182;-70
2022/08/22 09:21:42;;;;;;;;;;;22.00;99.90;;;;;;5100396;28;19983;-71
2022/08/22 09:24:22;;;;;;;;;;;22.00;99.90;;;;;;5098320;28;19995;-71
2022/08/22 09:26:57;;;;;;;;;;;22.10;99.90;;;;;;5096788;28;20207;-71
2022/08/22 09:29:41;;;;;;;;;;;22.10;99.90;;;;;;5101213;28;19951;-71
2022/08/22 09:32:11;;;;;;;;;;;22.20;99.90;;;;;;5099218;28;20101;-70
2022/08/22 09:34:44;;;;;;;;;;;22.30;99.90;;;;;;5101207;28;19920;-71
2022/08/22 09:37:16;;;;;;;;;;;22.30;99.90;;;;;;5104173;28;20003;-70
2022/08/22 09:39:48;;;;;;;;;;;22.40;99.90;;;;;;5084548;28;19928;-71
2022/08/22 09:42:18;;;;;;;;;;;22.50;99.90;;;;;;5091027;28;19920;-70
2022/08/22 09:44:52;;;;;;;;;;;22.50;99.90;;;;;;5103534;28;20250;-70
2022/08/22 09:47:22;;;;;;;;;;;22.60;99.90;;;;;;5104311;28;19920;-70
2022/08/22 09:49:55;;;;;;;;;;;22.70;99.90;;;;;;5104246;28;19926;-70
2022/08/22 09:52:43;;;;;;;;;;;22.70;99.90;;;;;;5088789;28;20003;-71
2022/08/22 09:55:18;;;;;;;;;;;22.80;99.90;;;;;;5091730;28;20011;-70
2022/08/22 09:57:51;;;;;;;;;;;22.90;99.90;;;;;;5098747;28;20333;-73
2022/08/22 10:00:22;;;;;;;;;;;22.90;99.90;;;;;;5104132;28;19924;-74
2022/08/22 10:02:53;;;;;;;;;;;23.00;99.90;;;;;;5103194;28;20292;-73
2022/08/22 10:05:21;;;;;;;;;;;23.10;99.90;;;;;;5103886;28;20012;-73
2022/08/22 10:08:04;;;;;;;;;;;23.20;99.90;;;;;;5103869;28;19987;-73
2022/08/22 10:10:39;;;;;;;;;;;23.30;99.90;;;;;;5102293;28;19920;-72
2022/08/22 10:13:10;;;;;;;;;;;23.40;99.90;;;;;;5101026;28;19994;-72
2022/08/22 10:15:39;;;;;;;;;;;23.50;99.90;;;;;;5103585;28;20204;-72
2022/08/22 10:18:10;;;;;;;;;;;23.50;99.90;;;;;;5103919;28;20184;-73
2022/08/22 10:20:46;;;;;;;;;;;23.50;99.90;;;;;;5103625;28;19920;-73
2022/08/22 10:23:16;;;;;;;;;;;23.60;99.90;;;;;;5102903;28;20299;-73
2022/08/22 10:25:48;;;;;;;;;;;23.70;99.90;;;;;;5103698;28;19924;-73
2022/08/22 10:28:18;;;;;;;;;;;23.80;99.90;;;;;;5084620;28;19926;-72
2022/08/22 10:31:00;;;;;;;;;;;23.90;99.90;;;;;;5103638;28;19927;-72
2022/08/22 10:33:30;;;;;;;;;;;24.00;99.90;;;;;;5103143;28;20223;-72
2022/08/22 10:36:00;;;;;;;;;;;24.10;99.90;;;;;;5102785;28;19978;-72
2022/08/22 10:38:30;;;;;;;;;;;24.20;99.90;;;;;;5103558;28;19988;-71
2022/08/22 10:41:03;;;;;;;;;;;24.20;99.90;;;;;;5103733;28;19920;-73
2022/08/22 10:43:34;;;;;;;;;;;24.10;99.90;;;;;;5102701;28;19984;-72
2022/08/22 10:46:02;;;;;;;;;;;24.10;99.90;;;;;;5114487;22;19991;-70
2022/08/22 10:48:34;;;;;;;;;;;24.30;99.90;;;;;;5103508;28;19952;-70
2022/08/22 10:51:10;;;;;;;;;;;24.30;99.90;;;;;;5087747;28;19966;-70
2022/08/22 10:53:45;;;;;;;;;;;24.50;99.90;;;;;;5084619;28;19979;-70
2022/08/22 10:56:17;;;;;;;;;;;24.60;99.90;;;;;;5103112;28;19991;-69
2022/08/22 10:58:48;;;;;;;;;;;24.70;99.90;;;;;;5103084;28;19920;-70
2022/08/22 11:01:16;;;;;;;;;;;24.80;99.90;;;;;;5103457;28;19987;-70
2022/08/22 11:03:44;;;;;;;;;;;24.80;99.90;;;;;;5102808;28;19983;-69
2022/08/22 11:06:13;;;;;;;;;;;24.90;99.90;;;;;;5102769;28;19970;-71
2022/08/22 11:08:57;;;;;;;;;;;25.00;99.90;;;;;;5103573;28;20179;-70
2022/08/22 11:11:30;;;;;;;;;;;25.10;99.90;;;;;;5103801;28;19927;-70
2022/08/22 11:14:05;;;;;;;;;;;25.30;99.90;;;;;;5100298;28;19920;-70
2022/08/22 11:16:38;;;;;;;;;;;25.40;99.90;;;;;;5090678;28;19921;-69
2022/08/22 11:19:11;;;;;;;;;;;25.40;99.90;;;;;;5092120;28;19932;-69
2022/08/22 11:21:45;;;;;;;;;;;25.50;99.90;;;;;;5101576;28;20130;-69
2022/08/22 11:24:18;;;;;;;;;;;25.60;99.90;;;;;;5102306;28;19920;-68
2022/08/22 11:26:50;;;;;;;;;;;25.80;99.50;;;;;;5103392;28;19920;-69
2022/08/22 11:29:29;;;;;;;;;;;26.00;99.00;;;;;;5101774;28;20181;-69
2022/08/22 11:32:01;;;;;;;;;;;25.90;98.20;;;;;;5100550;28;19983;-68
2022/08/22 11:34:35;;;;;;;;;;;25.80;98.00;;;;;;5102612;28;19926;-69
2022/08/22 11:37:05;;;;;;;;;;;25.70;97.60;;;;;;5103266;28;19987;-70
2022/08/22 11:39:34;;;;;;;;;;;25.70;95.50;;;;;;5103010;28;20203;-68
2022/08/22 11:42:05;;;;;;;;;;;25.80;98.10;;;;;;5100703;28;19986;-70
2022/08/22 11:44:34;;;;;;;;;;;25.90;97.10;;;;;;5102418;28;19920;-69
2022/08/22 11:47:01;;;;;;;;;;;26.00;97.50;;;;;;5103306;28;19920;-69
2022/08/22 11:49:33;;;;;;;;;;;26.10;97.40;;;;;;5103367;28;20192;-68
2022/08/22 11:52:33;;;;;;;;;;;26.20;97.50;;;;;;5105270;28;19920;-69
2022/08/22 11:55:17;;;;;;;;;;;26.10;96.60;;;;;;5023453;28;19964;-68
2022/08/22 11:57:47;;;;;;;;;;;26.10;93.90;;;;;;5013973;28;20303;-68
2022/08/22 12:00:20;;;;;;;;;;;26.20;95.20;;;;;;5071784;28;19959;-69
2022/08/22 12:02:55;;;;;;;;;;;26.30;95.10;;;;;;5097707;28;19984;-69
2022/08/22 12:05:23;;;;;;;;;;;26.40;94.90;;;;;;5106069;28;19987;-69
2022/08/22 12:07:54;;;;;;;;;;;26.50;94.60;;;;;;5092787;28;20208;-69
2022/08/22 12:10:24;;;;;;;;;;;26.60;96.20;;;;;;5086194;28;19948;-69
2022/08/22 12:12:59;;;;;;;;;;;26.70;96.50;;;;;;5085688;28;19987;-69
2022/08/22 12:15:30;;;;;;;;;;;26.90;96.50;;;;;;5086114;28;20235;-69
2022/08/22 12:18:21;;;;;;;;;;;27.00;95.70;;;;;;5086301;28;19983;-69
2022/08/22 12:20:58;;;;;;;;;;;26.90;95.40;;;;;;5095218;28;19927;-69
2022/08/22 12:23:31;;;;;;;;;;;26.80;95.90;;;;;;5105456;28;19999;-66
2022/08/22 12:26:06;;;;;;;;;;;27.00;94.80;;;;;;5105211;28;19920;-68
2022/08/22 12:28:38;;;;;;;;;;;27.10;94.60;;;;;;5106081;28;19983;-66
2022/08/22 12:31:09;;;;;;;;;;;27.20;94.90;;;;;;5106240;28;19920;-66
2022/08/22 12:33:57;;;;;;;;;;;27.30;94.20;;;;;;5103824;28;19924;-66
2022/08/22 12:36:42;;;;;;;;;;;27.30;93.60;;;;;;5082569;28;19921;-66
2022/08/22 12:39:27;;;;;;;;;;;27.30;94.40;;;;;;5085762;28;19921;-66
2022/08/22 12:42:13;;;;;;;;;;;27.30;93.00;;;;;;5095111;28;20203;-67
2022/08/22 12:44:49;;;;;;;;;;;27.50;92.90;;;;;;5095254;28;20258;-69
2022/08/22 12:47:35;;;;;;;;;;;27.60;92.30;;;;;;5092799;28;19928;-69
2022/08/22 12:50:15;;;;;;;;;;;27.80;92.50;;;;;;5096329;28;20203;-69
2022/08/22 12:52:48;;;;;;;;;;;27.90;92.60;;;;;;5105126;28;19928;-69
2022/08/22 12:55:24;;;;;;;;;;;27.90;91.90;;;;;;5085163;28;19987;-69
2022/08/22 12:57:55;;;;;;;;;;;27.80;92.30;;;;;;5085400;28;19983;-70
2022/08/22 13:00:30;;;;;;;;;;;27.50;92.80;;;;;;5097105;28;19929;-69
2022/08/22 13:02:59;;;;;;;;;;;27.60;93.80;;;;;;5104702;28;20023;-69
2022/08/22 13:05:27;;;;;;;;;;;27.80;93.40;;;;;;5105188;28;20175;-69
2022/08/22 13:07:55;;;;;;;;;;;28.20;93.10;;;;;;5099637;28;19920;-69
2022/08/22 13:10:35;;;;;;;;;;;28.50;92.20;;;;;;5084753;28;19987;-69
2022/08/22 13:13:02;;;;;;;;;;;28.60;92.20;;;;;;5092546;28;19920;-68
2022/08/22 13:15:32;;;;;;;;;;;28.80;92.40;;;;;;5101388;28;19991;-69
2022/08/22 13:17:59;;;;;;;;;;;28.80;92.20;;;;;;5085213;28;19920;-71
2022/08/22 13:20:28;;;;;;;;;;;28.80;92.70;;;;;;5104735;28;20110;-69
2022/08/22 13:22:55;;;;;;;;;;;28.80;91.60;;;;;;5104540;28;19962;-69
2022/08/22 13:25:24;;;;;;;;;;;28.70;91.50;;;;;;5104821;28;19962;-67
2022/08/22 13:27:52;;;;;;;;;;;28.50;91.50;;;;;;5094123;28;19987;-67
2022/08/22 13:30:20;;;;;;;;;;;28.10;91.20;;;;;;5101284;28;19934;-68
2022/08/22 13:32:49;;;;;;;;;;;27.90;90.70;;;;;;5083847;28;19999;-67
2022/08/22 13:35:33;;;;;;;;;;;27.70;91.70;;;;;;5102460;28;19988;-67
2022/08/22 13:38:04;;;;;;;;;;;27.70;92.10;;;;;;5093346;28;20003;-67
2022/08/22 13:40:31;;;;;;;;;;;27.80;91.20;;;;;;5084961;28;19963;-67
2022/08/22 13:43:02;;;;;;;;;;;28.00;90.90;;;;;;5080885;28;19989;-69
2022/08/22 13:45:29;;;;;;;;;;;28.20;91.00;;;;;;5090159;28;19959;-67
2022/08/22 13:47:59;;;;;;;;;;;28.10;91.10;;;;;;5104602;28;19979;-68
2022/08/22 13:50:27;;;;;;;;;;;28.20;91.00;;;;;;5089167;28;19996;-67
2022/08/22 13:52:57;;;;;;;;;;;28.40;90.10;;;;;;5083277;28;19920;-68
2022/08/22 13:55:26;;;;;;;;;;;28.50;90.10;;;;;;5083817;28;19927;-67
2022/08/22 13:57:54;;;;;;;;;;;28.70;91.00;;;;;;5084146;28;19927;-67
2022/08/22 14:00:48;;;;;;;;;;;28.80;90.50;;;;;;5097437;28;19920;-67
2022/08/22 14:03:19;;;;;;;;;;;28.80;88.60;;;;;;5056029;28;20170;-67
2022/08/22 14:05:47;;;;;;;;;;;28.80;88.80;;;;;;5104121;28;19998;-67
2022/08/22 14:08:16;;;;;;;;;;;28.70;88.40;;;;;;5103930;28;19963;-67
2022/08/22 14:10:45;;;;;;;;;;;28.80;87.40;;;;;;5103702;28;20226;-67
2022/08/22 14:13:29;;;;;;;;;;;29.10;88.10;;;;;;5101067;28;19967;-66
2022/08/22 14:15:58;;;;;;;;;;;29.10;86.30;;;;;;5086808;28;20097;-66
2022/08/22 14:18:30;;;;;;;;;;;28.90;87.80;;;;;;5090682;28;19920;-67
2022/08/22 14:21:16;;;;;;;;;;;29.00;88.20;;;;;;5083691;28;20109;-67
2022/08/22 14:23:44;;;;;;;;;;;29.10;87.60;;;;;;5091398;28;19978;-67
2022/08/22 14:26:22;;;;;;;;;;;29.20;88.60;;;;;;5103884;28;19920;-67
2022/08/22 14:28:48;;;;;;;;;;;29.20;86.20;;;;;;5087102;28;19980;-67
2022/08/22 14:31:21;;;;;;;;;;;29.20;86.20;;;;;;5096492;28;19920;-67
2022/08/22 14:33:50;;;;;;;;;;;29.40;86.30;;;;;;5089181;28;19979;-67
2022/08/22 14:36:19;;;;;;;;;;;29.20;85.40;;;;;;5103573;28;19991;-66
2022/08/22 14:38:50;;;;;;;;;;;29.20;86.80;;;;;;5103793;28;20186;-67
2022/08/22 14:41:25;;;;;;;;;;;29.20;86.20;;;;;;5103820;28;19973;-67
2022/08/22 14:43:55;;;;;;;;;;;29.00;83.90;;;;;;5102997;28;19924;-66
2022/08/22 14:46:25;;;;;;;;;;;28.90;85.30;;;;;;5103190;28;19966;-67
2022/08/22 14:49:06;;;;;;;;;;;28.80;84.30;;;;;;5096212;28;19920;-66